sensor_id;sensor_type;location;lat;lon;timestamp;pressure;altitude;pressure_sealevel;temperature;humidity
8515;BME280;4295;51.024;7.000;2022-08-03T00:01:35;20323.13;;;-143.72;100.00
8515;BME280;4295;51.024;7.000;2022-08-03T00:04:02;20071.53;;;-143.72;100.00
8515;BME280;4295;51.024;7.000;2022-08-03T00:06:28;20071.53;;;-143.72;100.00
8515;BME280;4295;51.024;7.000;2022-08-03T00:08:53;20071.53;;;-143.72;100.00
8515;BME280;4295;51.024;7.000;2022-08-03T00:11:18;20071.53;;;-143.72;100.00
8515;BME280;4295;51.024;7.000;2022-08-03T00:13:44;19819.94;;;-143.72;100.00
8515;BME280;4295;51.024;7.000;2022-08-03T00:16:10;19819.94;;;-143.72;100.00
8515;BME280;4295;51.024;7.000;2022-08-03T00:18:36;19568.38;;;-143.72;100.00
8515;BME280;4295;51.024;7.000;2022-08-03T00:21:02;20323.13;;;-143.72;100.00
8515;BME280;4295;51.024;7.000;2022-08-03T00:23:28;20323.13;;;-143.72;100.00
8515;BME280;4295;51.024;7.000;2022-08-03T00:25:54;20323.13;;;-143.72;100.00
8515;BME280;4295;51.024;7.000;2022-08-03T00:28:19;20071.53;;;-143.72;100.00
8515;BME280;4295;51.024;7.000;2022-08-03T00:30:45;19819.94;;;-143.72;100.00
8515;BME280;4295;51.024;7.000;2022-08-03T00:33:10;20071.53;;;-143.72;100.00
8515;BME280;4295;51.024;7.000;2022-08-03T00:35:36;19568.38;;;-143.72;100.00
8515;BME280;4295;51.024;7.000;2022-08-03T00:38:01;19568.38;;;-143.72;100.00
8515;BME280;4295;51.024;7.000;2022-08-03T00:40:27;19568.38;;;-143.72;100.00
8515;BME280;4295;51.024;7.000;2022-08-03T00:43:00;19316.84;;;-143.72;100.00
8515;BME280;4295;51.024;7.000;2022-08-03T00:45:32;18813.81;;;-143.72;100.00
8515;BME280;4295;51.024;7.000;2022-08-03T00:47:58;18562.31;;;-143.72;100.00
8515;BME280;4295;51.024;7.000;2022-08-03T00:50:25;18813.81;;;-143.72;100.00
8515;BME280;4295;51.024;7.000;2022-08-03T00:52:52;18813.81;;;-143.72;100.00
8515;BME280;4295;51.024;7.000;2022-08-03T00:55:19;18813.81;;;-143.72;100.00
8515;BME280;4295;51.024;7.000;2022-08-03T00:57:44;19065.31;;;-143.72;100.00
8515;BME280;4295;51.024;7.000;2022-08-03T01:00:11;19065.31;;;-143.72;100.00
8515;BME280;4295;51.024;7.000;2022-08-03T01:02:38;18562.31;;;-143.72;100.00
8515;BME280;4295;51.024;7.000;2022-08-03T01:05:04;18310.84;;;-143.72;100.00
8515;BME280;4295;51.024;7.000;2022-08-03T01:16:06;17053.78;;;-143.72;100.00
8515;BME280;4295;51.024;7.000;2022-08-03T01:18:47;16551.09;;;-143.72;100.00
8515;BME280;4295;51.024;7.000;2022-08-03T01:21:36;15797.22;;;-143.72;100.00
8515;BME280;4295;51.024;7.000;2022-08-03T01:26:57;14792.28;;;-143.72;100.00
8515;BME280;4295;51.024;7.000;2022-08-03T01:32:24;14289.94;;;-143.72;100.00
8515;BME280;4295;51.024;7.000;2022-08-03T01:34:59;14038.81;;;-143.72;100.00
8515;BME280;4295;51.024;7.000;2022-08-03T01:37:30;13536.56;;;-143.72;100.00
8515;BME280;4295;51.024;7.000;2022-08-03T01:39:57;13285.50;;;-143.72;100.00
8515;BME280;4295;51.024;7.000;2022-08-03T01:42:26;12783.38;;;-143.72;100.00
8515;BME280;4295;51.024;7.000;2022-08-03T01:44:53;12532.34;;;-143.72;100.00
8515;BME280;4295;51.024;7.000;2022-08-03T01:47:21;12281.34;;;-143.72;100.00
8515;BME280;4295;51.024;7.000;2022-08-03T01:49:48;11779.38;;;-143.72;100.00
8515;BME280;4295;51.024;7.000;2022-08-03T01:52:19;11528.41;;;-143.72;100.00
8515;BME280;4295;51.024;7.000;2022-08-03T01:54:48;11277.47;;;-143.72;100.00
8515;BME280;4295;51.024;7.000;2022-08-03T01:57:14;11026.56;;;-143.72;100.00
8515;BME280;4295;51.024;7.000;2022-08-03T01:59:41;10775.66;;;-143.72;100.00
8515;BME280;4295;51.024;7.000;2022-08-03T02:02:12;10524.78;;;-143.72;100.00
8515;BME280;4295;51.024;7.000;2022-08-03T02:04:40;10524.78;;;-143.72;100.00
8515;BME280;4295;51.024;7.000;2022-08-03T02:10:10;9772.28;;;-143.72;100.00
8515;BME280;4295;51.024;7.000;2022-08-03T02:12:37;9270.69;;;-143.72;100.00
8515;BME280;4295;51.024;7.000;2022-08-03T02:15:04;9270.69;;;-143.72;100.00
8515;BME280;4295;51.024;7.000;2022-08-03T02:17:32;9019.94;;;-143.72;100.00
8515;BME280;4295;51.024;7.000;2022-08-03T02:19:59;8769.19;;;-143.72;100.00
8515;BME280;4295;51.024;7.000;2022-08-03T02:22:26;8518.47;;;-143.72;100.00
8515;BME280;4295;51.024;7.000;2022-08-03T02:24:52;8518.47;;;-143.72;100.00
8515;BME280;4295;51.024;7.000;2022-08-03T02:27:22;8267.75;;;-143.72;100.00
8515;BME280;4295;51.024;7.000;2022-08-03T02:29:52;8017.06;;;-143.72;100.00
8515;BME280;4295;51.024;7.000;2022-08-03T02:32:24;7515.75;;;-143.72;100.00
8515;BME280;4295;51.024;7.000;2022-08-03T02:34:54;7265.13;;;-143.72;100.00
8515;BME280;4295;51.024;7.000;2022-08-03T02:37:21;6763.94;;;-143.72;100.00
8515;BME280;4295;51.024;7.000;2022-08-03T02:39:50;6513.34;;;-143.72;100.00
8515;BME280;4295;51.024;7.000;2022-08-03T02:42:20;6262.81;;;-143.72;100.00
8515;BME280;4295;51.024;7.000;2022-08-03T02:44:47;6262.81;;;-143.72;100.00
8515;BME280;4295;51.024;7.000;2022-08-03T02:47:14;6012.28;;;-143.72;100.00
8515;BME280;4295;51.024;7.000;2022-08-03T02:49:42;5511.25;;;-143.72;100.00
8515;BME280;4295;51.024;7.000;2022-08-03T02:52:11;5260.78;;;-143.72;100.00
8515;BME280;4295;51.024;7.000;2022-08-03T02:54:37;5260.78;;;-143.72;100.00
8515;BME280;4295;51.024;7.000;2022-08-03T02:57:06;4759.88;;;-143.72;100.00
8515;BME280;4295;51.024;7.000;2022-08-03T02:59:32;4259.06;;;-143.72;100.00
8515;BME280;4295;51.024;7.000;2022-08-03T03:01:59;4008.69;;;-143.72;100.00
8515;BME280;4295;51.024;7.000;2022-08-03T03:04:27;3758.31;;;-143.72;100.00
8515;BME280;4295;51.024;7.000;2022-08-03T03:06:54;3507.97;;;-143.72;100.00
8515;BME280;4295;51.024;7.000;2022-08-03T03:09:20;3507.97;;;-143.72;100.00
8515;BME280;4295;51.024;7.000;2022-08-03T03:11:48;3257.66;;;-143.72;100.00
8515;BME280;4295;51.024;7.000;2022-08-03T03:14:15;3007.34;;;-143.72;100.00
8515;BME280;4295;51.024;7.000;2022-08-03T03:16:42;3007.34;;;-143.72;100.00
8515;BME280;4295;51.024;7.000;2022-08-03T03:19:09;3007.34;;;-143.72;100.00
8515;BME280;4295;51.024;7.000;2022-08-03T03:21:36;3007.34;;;-143.72;100.00
8515;BME280;4295;51.024;7.000;2022-08-03T03:24:02;3007.34;;;-143.72;100.00
8515;BME280;4295;51.024;7.000;2022-08-03T03:26:29;2757.06;;;-143.72;100.00
8515;BME280;4295;51.024;7.000;2022-08-03T03:28:54;2506.81;;;-143.72;100.00
8515;BME280;4295;51.024;7.000;2022-08-03T03:31:20;2506.81;;;-143.72;100.00
8515;BME280;4295;51.024;7.000;2022-08-03T03:33:46;2506.81;;;-143.72;100.00
8515;BME280;4295;51.024;7.000;2022-08-03T03:36:12;2506.81;;;-143.72;100.00
8515;BME280;4295;51.024;7.000;2022-08-03T03:38:37;2506.81;;;-143.72;100.00
8515;BME280;4295;51.024;7.000;2022-08-03T03:41:03;2006.31;;;-143.72;100.00
8515;BME280;4295;51.024;7.000;2022-08-03T03:43:29;2006.31;;;-143.72;100.00
8515;BME280;4295;51.024;7.000;2022-08-03T03:45:55;2006.31;;;-143.72;100.00
8515;BME280;4295;51.024;7.000;2022-08-03T03:48:23;2006.31;;;-143.72;100.00
8515;BME280;4295;51.024;7.000;2022-08-03T03:50:49;1756.13;;;-143.72;100.00
8515;BME280;4295;51.024;7.000;2022-08-03T03:53:14;1505.94;;;-143.72;100.00
8515;BME280;4295;51.024;7.000;2022-08-03T03:55:40;1255.75;;;-143.72;100.00
8515;BME280;4295;51.024;7.000;2022-08-03T03:58:06;1255.75;;;-143.72;100.00
8515;BME280;4295;51.024;7.000;2022-08-03T04:00:32;1005.59;;;-143.72;100.00
8515;BME280;4295;51.024;7.000;2022-08-03T04:02:57;1005.59;;;-143.72;100.00
8515;BME280;4295;51.024;7.000;2022-08-03T04:05:22;755.47;;;-143.72;100.00
8515;BME280;4295;51.024;7.000;2022-08-03T04:08:09;755.47;;;-143.72;100.00
8515;BME280;4295;51.024;7.000;2022-08-03T04:11:14;1005.59;;;-143.72;100.00
8515;BME280;4295;51.024;7.000;2022-08-03T04:16:17;1255.75;;;-143.72;100.00
8515;BME280;4295;51.024;7.000;2022-08-03T04:18:47;1505.94;;;-143.72;100.00
8515;BME280;4295;51.024;7.000;2022-08-03T04:21:15;1505.94;;;-143.72;100.00
8515;BME280;4295;51.024;7.000;2022-08-03T04:23:46;1505.94;;;-143.72;100.00
8515;BME280;4295;51.024;7.000;2022-08-03T04:26:15;1756.13;;;-143.72;100.00
8515;BME280;4295;51.024;7.000;2022-08-03T04:28:43;1756.13;;;-143.72;100.00
8515;BME280;4295;51.024;7.000;2022-08-03T04:31:10;2006.31;;;-143.72;100.00
8515;BME280;4295;51.024;7.000;2022-08-03T04:33:37;2256.56;;;-143.72;100.00
8515;BME280;4295;51.024;7.000;2022-08-03T04:36:07;2506.81;;;-143.72;100.00
8515;BME280;4295;51.024;7.000;2022-08-03T04:38:39;2506.81;;;-143.72;100.00
8515;BME280;4295;51.024;7.000;2022-08-03T04:41:06;3007.34;;;-143.72;100.00
8515;BME280;4295;51.024;7.000;2022-08-03T04:43:53;3257.66;;;-143.72;100.00
8515;BME280;4295;51.024;7.000;2022-08-03T04:46:22;3507.97;;;-143.72;100.00
8515;BME280;4295;51.024;7.000;2022-08-03T04:48:48;3507.97;;;-143.72;100.00
8515;BME280;4295;51.024;7.000;2022-08-03T04:51:14;4259.06;;;-143.72;100.00
8515;BME280;4295;51.024;7.000;2022-08-03T04:53:42;4759.88;;;-143.72;100.00
8515;BME280;4295;51.024;7.000;2022-08-03T04:56:08;5761.75;;;-143.72;100.00
8515;BME280;4295;51.024;7.000;2022-08-03T04:58:34;6513.34;;;-143.72;100.00
8515;BME280;4295;51.024;7.000;2022-08-03T05:00:59;7766.41;;;-143.72;100.00
8515;BME280;4295;51.024;7.000;2022-08-03T05:03:24;8769.19;;;-143.72;100.00
8515;BME280;4295;51.024;7.000;2022-08-03T05:05:51;8518.47;;;-143.72;100.00
8515;BME280;4295;51.024;7.000;2022-08-03T05:08:16;8769.19;;;-143.72;100.00
8515;BME280;4295;51.024;7.000;2022-08-03T05:10:42;8769.19;;;-143.72;100.00
8515;BME280;4295;51.024;7.000;2022-08-03T05:13:07;8769.19;;;-143.72;100.00
8515;BME280;4295;51.024;7.000;2022-08-03T05:15:37;9772.28;;;-143.72;100.00
8515;BME280;4295;51.024;7.000;2022-08-03T05:18:02;10775.66;;;-143.72;100.00
8515;BME280;4295;51.024;7.000;2022-08-03T05:20:27;11779.38;;;-143.72;100.00
8515;BME280;4295;51.024;7.000;2022-08-03T05:22:53;12783.38;;;-143.72;100.00
8515;BME280;4295;51.024;7.000;2022-08-03T05:25:18;13787.69;;;-143.72;100.00
8515;BME280;4295;51.024;7.000;2022-08-03T05:27:43;13285.50;;;-143.72;100.00
8515;BME280;4295;51.024;7.000;2022-08-03T05:30:09;12532.34;;;-143.72;100.00
8515;BME280;4295;51.024;7.000;2022-08-03T05:32:35;14792.28;;;-143.72;100.00
8515;BME280;4295;51.024;7.000;2022-08-03T05:35:00;14541.13;;;-143.72;100.00
8515;BME280;4295;51.024;7.000;2022-08-03T05:37:25;16048.50;;;-143.72;100.00
8515;BME280;4295;51.024;7.000;2022-08-03T05:39:51;17556.56;;;-143.72;100.00
8515;BME280;4295;51.024;7.000;2022-08-03T05:42:16;18310.84;;;-143.72;100.00
8515;BME280;4295;51.024;7.000;2022-08-03T05:44:41;19065.31;;;-143.72;100.00
8515;BME280;4295;51.024;7.000;2022-08-03T05:47:07;46340.22;;;-143.72;100.00
8515;BME280;4295;51.024;7.000;2022-08-03T05:49:32;89555.09;;;-143.72;100.00
8515;BME280;4295;51.024;7.000;2022-08-03T05:51:58;89392.59;;;-143.72;86.39
8515;BME280;4295;51.024;7.000;2022-08-03T05:54:23;88760.69;;;-143.72;78.17
8515;BME280;4295;51.024;7.000;2022-08-03T05:56:49;88209.13;;;-143.72;70.69
8515;BME280;4295;51.024;7.000;2022-08-03T05:59:14;88028.63;;;-143.72;68.17
8515;BME280;4295;51.024;7.000;2022-08-03T06:01:39;88078.78;;;-143.72;67.66
8515;BME280;4295;51.024;7.000;2022-08-03T06:04:05;87840.13;;;-143.72;65.28
8515;BME280;4295;51.024;7.000;2022-08-03T06:06:30;87579.47;;;-143.72;62.45
8515;BME280;4295;51.024;7.000;2022-08-03T06:08:55;87465.16;;;-143.72;60.46
8515;BME280;4295;51.024;7.000;2022-08-03T06:11:21;87405.00;;;-143.72;60.03
8515;BME280;4295;51.024;7.000;2022-08-03T06:13:46;87370.94;;;-143.72;59.96
8515;BME280;4295;51.024;7.000;2022-08-03T06:16:11;87218.56;;;-143.72;58.29
8515;BME280;4295;51.024;7.000;2022-08-03T06:18:37;86977.97;;;-143.72;56.06
8515;BME280;4295;51.024;7.000;2022-08-03T06:21:03;86645.19;;;-143.72;52.73
8515;BME280;4295;51.024;7.000;2022-08-03T06:23:29;86697.31;;;-143.72;51.93
8515;BME280;4295;51.024;7.000;2022-08-03T06:25:54;86661.22;;;-143.72;51.82
8515;BME280;4295;51.024;7.000;2022-08-03T06:28:19;86258.31;;;-143.72;47.90
8515;BME280;4295;51.024;7.000;2022-08-03T06:30:45;86146.06;;;-143.72;47.45
8515;BME280;4295;51.024;7.000;2022-08-03T06:33:11;86326.47;;;-143.72;47.77
8515;BME280;4295;51.024;7.000;2022-08-03T06:35:36;86412.66;;;-143.72;49.35
8515;BME280;4295;51.024;7.000;2022-08-03T06:38:02;86344.50;;;-143.72;48.17
8515;BME280;4295;51.024;7.000;2022-08-03T06:40:27;86328.47;;;-143.72;48.44
8515;BME280;4295;51.024;7.000;2022-08-03T06:42:58;86126.03;;;-143.72;45.70
8515;BME280;4295;51.024;7.000;2022-08-03T06:45:24;86009.78;;;-143.72;45.06
8515;BME280;4295;51.024;7.000;2022-08-03T06:50:24;86749.44;;;-143.72;49.06
8515;BME280;4295;51.024;7.000;2022-08-03T06:52:50;87200.50;;;-143.72;55.49
8515;BME280;4295;51.024;7.000;2022-08-03T06:55:15;86839.63;;;-143.72;54.94
8515;BME280;4295;51.024;7.000;2022-08-03T06:57:41;86919.81;;;-143.72;54.90
8515;BME280;4295;51.024;7.000;2022-08-03T07:00:07;87264.66;;;-143.72;56.14
8515;BME280;4295;51.024;7.000;2022-08-03T07:02:34;87531.34;;;-143.72;62.49
8515;BME280;4295;51.024;7.000;2022-08-03T07:04:59;87096.25;;;-143.72;58.71
8515;BME280;4295;51.024;7.000;2022-08-03T07:07:25;86903.78;;;-143.72;55.55
8515;BME280;4295;51.024;7.000;2022-08-03T07:09:50;86951.91;;;-143.72;56.31
8515;BME280;4295;51.024;7.000;2022-08-03T07:12:15;87240.59;;;-143.72;59.40
8515;BME280;4295;51.024;7.000;2022-08-03T07:14:41;87134.34;;;-143.72;58.17
8515;BME280;4295;51.024;7.000;2022-08-03T07:17:06;86853.66;;;-143.72;54.33
8515;BME280;4295;51.024;7.000;2022-08-03T07:19:32;86998.00;;;-143.72;56.40
8515;BME280;4295;51.024;7.000;2022-08-03T07:21:57;87004.03;;;-143.72;56.99
8515;BME280;4295;51.024;7.000;2022-08-03T07:24:23;86895.78;;;-143.72;54.99
8515;BME280;4295;51.024;7.000;2022-08-03T07:26:48;86903.78;;;-143.72;55.97
8515;BME280;4295;51.024;7.000;2022-08-03T07:29:14;86994.00;;;-143.72;57.37
8515;BME280;4295;51.024;7.000;2022-08-03T07:31:39;87346.88;;;-143.72;60.53
8515;BME280;4295;51.024;7.000;2022-08-03T07:34:04;87419.06;;;-143.72;62.55
8515;BME280;4295;51.024;7.000;2022-08-03T07:36:30;87182.47;;;-143.72;59.38
8515;BME280;4295;51.024;7.000;2022-08-03T07:38:56;87096.25;;;-143.72;60.63
8515;BME280;4295;51.024;7.000;2022-08-03T07:41:22;87018.06;;;-143.72;57.43
8515;BME280;4295;51.024;7.000;2022-08-03T07:43:48;87128.31;;;-143.72;60.05
8515;BME280;4295;51.024;7.000;2022-08-03T07:46:13;86905.78;;;-143.72;55.77
8515;BME280;4295;51.024;7.000;2022-08-03T07:48:39;86923.84;;;-143.72;58.56
8515;BME280;4295;51.024;7.000;2022-08-03T07:51:04;86875.72;;;-143.72;56.25
8515;BME280;4295;51.024;7.000;2022-08-03T07:53:30;87190.47;;;-143.72;60.87
8515;BME280;4295;51.024;7.000;2022-08-03T07:55:56;86988.00;;;-143.72;56.83
8515;BME280;4295;51.024;7.000;2022-08-03T07:58:21;86941.88;;;-143.72;56.28
8515;BME280;4295;51.024;7.000;2022-08-03T08:00:48;87178.44;;;-143.72;60.37
8515;BME280;4295;51.024;7.000;2022-08-03T08:03:15;87268.66;;;-143.72;61.38
8515;BME280;4295;51.024;7.000;2022-08-03T08:05:40;87417.03;;;-143.72;65.27
8515;BME280;4295;51.024;7.000;2022-08-03T08:08:06;87555.41;;;-143.72;63.48
8515;BME280;4295;51.024;7.000;2022-08-03T08:10:33;87124.31;;;-143.72;59.61
8515;BME280;4295;51.024;7.000;2022-08-03T08:12:59;87154.38;;;-143.72;60.85
8515;BME280;4295;51.024;7.000;2022-08-03T08:15:25;87272.69;;;-143.72;62.85
8515;BME280;4295;51.024;7.000;2022-08-03T08:17:52;87088.22;;;-143.72;60.70
8515;BME280;4295;51.024;7.000;2022-08-03T08:20:26;87098.25;;;-143.72;62.13
8515;BME280;4295;51.024;7.000;2022-08-03T08:23:00;87314.78;;;-143.72;63.50
8515;BME280;4295;51.024;7.000;2022-08-03T08:25:26;87162.41;;;-143.72;61.36
8515;BME280;4295;51.024;7.000;2022-08-03T08:27:52;87112.28;;;-143.72;60.81
8515;BME280;4295;51.024;7.000;2022-08-03T08:30:19;87158.41;;;-143.72;61.45
8515;BME280;4295;51.024;7.000;2022-08-03T08:32:46;87204.50;;;-143.72;63.01
8515;BME280;4295;51.024;7.000;2022-08-03T08:35:12;87264.66;;;-143.72;62.45
8515;BME280;4295;51.024;7.000;2022-08-03T08:37:38;87114.28;;;-143.72;62.85
8515;BME280;4295;51.024;7.000;2022-08-03T08:40:04;87134.34;;;-143.72;64.33
8515;BME280;4295;51.024;7.000;2022-08-03T08:42:31;87240.59;;;-143.72;62.47
8515;BME280;4295;51.024;7.000;2022-08-03T08:44:56;87074.19;;;-143.72;60.41
8515;BME280;4295;51.024;7.000;2022-08-03T08:47:24;87314.78;;;-143.72;61.31
8515;BME280;4295;51.024;7.000;2022-08-03T08:49:53;87106.28;;;-143.72;61.94
8515;BME280;4295;51.024;7.000;2022-08-03T08:52:24;87054.16;;;-143.72;60.63
8515;BME280;4295;51.024;7.000;2022-08-03T08:54:51;87090.22;;;-143.72;60.83
8515;BME280;4295;51.024;7.000;2022-08-03T08:57:20;87310.78;;;-143.72;62.59
8515;BME280;4295;51.024;7.000;2022-08-03T08:59:46;87224.56;;;-143.72;64.67
8515;BME280;4295;51.024;7.000;2022-08-03T09:02:12;87010.03;;;-143.72;59.31
8515;BME280;4295;51.024;7.000;2022-08-03T09:04:38;87034.09;;;-143.72;59.46
8515;BME280;4295;51.024;7.000;2022-08-03T09:07:04;87118.31;;;-143.72;59.36
8515;BME280;4295;51.024;7.000;2022-08-03T09:09:30;87100.25;;;-143.72;59.05
8515;BME280;4295;51.024;7.000;2022-08-03T09:11:56;87162.41;;;-143.72;59.96
8515;BME280;4295;51.024;7.000;2022-08-03T09:14:21;87252.63;;;-143.72;64.53
8515;BME280;4295;51.024;7.000;2022-08-03T09:16:57;87162.41;;;-143.72;61.62
8515;BME280;4295;51.024;7.000;2022-08-03T09:19:27;87014.06;;;-143.72;59.44
8515;BME280;4295;51.024;7.000;2022-08-03T09:24:36;87010.03;;;-143.72;59.96
8515;BME280;4295;51.024;7.000;2022-08-03T09:27:05;87046.13;;;-143.72;59.97
8515;BME280;4295;51.024;7.000;2022-08-03T09:29:32;87146.38;;;-143.72;60.62
8515;BME280;4295;51.024;7.000;2022-08-03T09:32:02;87046.13;;;-143.72;59.98
8515;BME280;4295;51.024;7.000;2022-08-03T09:34:28;87026.09;;;-143.72;59.75
8515;BME280;4295;51.024;7.000;2022-08-03T09:36:54;87002.03;;;-143.72;62.95
8515;BME280;4295;51.024;7.000;2022-08-03T09:39:24;87054.16;;;-143.72;64.27
8515;BME280;4295;51.024;7.000;2022-08-03T09:44:37;86965.94;;;-143.72;58.58
8515;BME280;4295;51.024;7.000;2022-08-03T09:47:04;86915.81;;;-143.72;58.56
8515;BME280;4295;51.024;7.000;2022-08-03T09:49:30;87024.06;;;-143.72;59.68
8515;BME280;4295;51.024;7.000;2022-08-03T09:52:00;87046.13;;;-143.72;59.55
8515;BME280;4295;51.024;7.000;2022-08-03T09:54:30;87052.16;;;-143.72;59.47
8515;BME280;4295;51.024;7.000;2022-08-03T09:56:57;87074.19;;;-143.72;59.36
8515;BME280;4295;51.024;7.000;2022-08-03T09:59:31;86747.41;;;-143.72;53.56
8515;BME280;4295;51.024;7.000;2022-08-03T10:01:58;86805.56;;;-143.72;57.25
8515;BME280;4295;51.024;7.000;2022-08-03T10:04:26;86735.41;;;-143.72;55.27
8515;BME280;4295;51.024;7.000;2022-08-03T10:09:29;86753.44;;;-143.72;57.68
8515;BME280;4295;51.024;7.000;2022-08-03T10:11:55;86470.78;;;-143.72;57.22
8515;BME280;4295;51.024;7.000;2022-08-03T10:14:21;86661.22;;;-143.72;55.69
8515;BME280;4295;51.024;7.000;2022-08-03T10:16:48;86677.25;;;-143.72;53.45
8515;BME280;4295;51.024;7.000;2022-08-03T10:19:14;86681.28;;;-143.72;55.72
8515;BME280;4295;51.024;7.000;2022-08-03T10:21:44;86585.03;;;-143.72;55.26
8515;BME280;4295;51.024;7.000;2022-08-03T10:24:13;86556.97;;;-143.72;50.68
8515;BME280;4295;51.024;7.000;2022-08-03T10:26:43;86476.81;;;-143.72;51.47
8515;BME280;4295;51.024;7.000;2022-08-03T10:29:19;86444.72;;;-143.72;51.58
8515;BME280;4295;51.024;7.000;2022-08-03T10:31:46;86436.72;;;-143.72;53.57
8515;BME280;4295;51.024;7.000;2022-08-03T10:34:23;86386.59;;;-143.72;51.76
8515;BME280;4295;51.024;7.000;2022-08-03T10:40:14;86591.06;;;-143.72;54.07
8515;BME280;4295;51.024;7.000;2022-08-03T10:42:43;86394.63;;;-143.72;49.48
8515;BME280;4295;51.024;7.000;2022-08-03T10:45:21;86559.00;;;-143.72;49.15
8515;BME280;4295;51.024;7.000;2022-08-03T10:47:49;86376.56;;;-143.72;47.71
8515;BME280;4295;51.024;7.000;2022-08-03T10:50:16;86400.63;;;-143.72;52.05
8515;BME280;4295;51.024;7.000;2022-08-03T10:53:02;86577.03;;;-143.72;49.93
8515;BME280;4295;51.024;7.000;2022-08-03T10:55:45;86434.72;;;-143.72;50.11
8515;BME280;4295;51.024;7.000;2022-08-03T11:01:01;86376.56;;;-143.72;46.56
8515;BME280;4295;51.024;7.000;2022-08-03T11:03:27;86418.66;;;-143.72;47.57
8515;BME280;4295;51.024;7.000;2022-08-03T11:05:52;86486.81;;;-143.72;49.56
8515;BME280;4295;51.024;7.000;2022-08-03T11:08:32;86414.66;;;-143.72;46.45
8515;BME280;4295;51.024;7.000;2022-08-03T11:14:05;86492.84;;;-143.72;51.37
8515;BME280;4295;51.024;7.000;2022-08-03T11:16:36;86448.75;;;-143.72;50.22
8515;BME280;4295;51.024;7.000;2022-08-03T11:19:08;86354.53;;;-143.72;47.02
8515;BME280;4295;51.024;7.000;2022-08-03T11:27:29;86452.75;;;-143.72;50.63
8515;BME280;4295;51.024;7.000;2022-08-03T11:30:05;86448.75;;;-143.72;50.92
8515;BME280;4295;51.024;7.000;2022-08-03T11:35:11;86418.66;;;-143.72;51.52
8515;BME280;4295;51.024;7.000;2022-08-03T11:40:47;86484.81;;;-143.72;52.00
8515;BME280;4295;51.024;7.000;2022-08-03T11:46:10;86675.25;;;-143.72;57.00
8515;BME280;4295;51.024;7.000;2022-08-03T11:48:43;86282.38;;;-143.72;49.90
8515;BME280;4295;51.024;7.000;2022-08-03T11:51:26;86168.13;;;-143.72;49.05
8515;BME280;4295;51.024;7.000;2022-08-03T11:53:58;86055.88;;;-143.72;48.11
8515;BME280;4295;51.024;7.000;2022-08-03T11:56:24;85797.34;;;-143.72;47.95
8515;BME280;4295;51.024;7.000;2022-08-03T11:58:51;86027.81;;;-143.72;45.32
8515;BME280;4295;51.024;7.000;2022-08-03T12:01:19;86150.09;;;-143.72;47.83
8515;BME280;4295;51.024;7.000;2022-08-03T12:03:45;86085.94;;;-143.72;47.54
8515;BME280;4295;51.024;7.000;2022-08-03T12:06:13;86575.03;;;-143.72;50.22
8515;BME280;4295;51.024;7.000;2022-08-03T12:08:40;86212.22;;;-143.72;48.29
8515;BME280;4295;51.024;7.000;2022-08-03T12:11:08;86118.03;;;-143.72;45.95
8515;BME280;4295;51.024;7.000;2022-08-03T12:13:39;86238.28;;;-143.72;48.67
8515;BME280;4295;51.024;7.000;2022-08-03T12:16:05;86186.16;;;-143.72;49.54
8515;BME280;4295;51.024;7.000;2022-08-03T12:18:31;86116.00;;;-143.72;47.49
8515;BME280;4295;51.024;7.000;2022-08-03T12:21:08;86138.06;;;-143.72;45.43
8515;BME280;4295;51.024;7.000;2022-08-03T12:23:34;86256.31;;;-143.72;48.34
8515;BME280;4295;51.024;7.000;2022-08-03T12:26:07;86296.41;;;-143.72;47.57
8515;BME280;4295;51.024;7.000;2022-08-03T12:28:32;85971.72;;;-143.72;46.91
8515;BME280;4295;51.024;7.000;2022-08-03T12:31:06;86336.50;;;-143.72;47.94
8515;BME280;4295;51.024;7.000;2022-08-03T12:34:01;86248.28;;;-143.72;48.48
8515;BME280;4295;51.024;7.000;2022-08-03T12:36:29;86156.09;;;-143.72;46.47
8515;BME280;4295;51.024;7.000;2022-08-03T12:38:58;86168.13;;;-143.72;47.22
8515;BME280;4295;51.024;7.000;2022-08-03T12:41:32;86136.06;;;-143.72;45.82
8515;BME280;4295;51.024;7.000;2022-08-03T12:43:58;86140.06;;;-143.72;47.30
8515;BME280;4295;51.024;7.000;2022-08-03T12:46:34;86150.09;;;-143.72;48.05
8515;BME280;4295;51.024;7.000;2022-08-03T12:49:01;86188.16;;;-143.72;49.49
8515;BME280;4295;51.024;7.000;2022-08-03T12:51:28;86196.19;;;-143.72;47.63
8515;BME280;4295;51.024;7.000;2022-08-03T12:53:55;86320.44;;;-143.72;46.54
8515;BME280;4295;51.024;7.000;2022-08-03T12:56:21;86388.59;;;-143.72;48.55
8515;BME280;4295;51.024;7.000;2022-08-03T12:58:46;86316.44;;;-143.72;49.03
8515;BME280;4295;51.024;7.000;2022-08-03T13:01:12;86292.41;;;-143.72;50.34
8515;BME280;4295;51.024;7.000;2022-08-03T13:03:42;86316.44;;;-143.72;47.14
8515;BME280;4295;51.024;7.000;2022-08-03T13:06:22;86308.44;;;-143.72;48.72
8515;BME280;4295;51.024;7.000;2022-08-03T13:08:49;86290.38;;;-143.72;47.05
8515;BME280;4295;51.024;7.000;2022-08-03T13:11:26;86314.44;;;-143.72;47.95
8515;BME280;4295;51.024;7.000;2022-08-03T13:13:53;86274.34;;;-143.72;47.27
8515;BME280;4295;51.024;7.000;2022-08-03T13:16:23;86312.44;;;-143.72;47.00
8515;BME280;4295;51.024;7.000;2022-08-03T13:18:49;86262.31;;;-143.72;48.53
8515;BME280;4295;51.024;7.000;2022-08-03T13:21:16;86376.56;;;-143.72;48.10
8515;BME280;4295;51.024;7.000;2022-08-03T13:23:42;86174.13;;;-143.72;47.59
8515;BME280;4295;51.024;7.000;2022-08-03T13:26:08;86174.13;;;-143.72;48.69
8515;BME280;4295;51.024;7.000;2022-08-03T13:28:34;86386.59;;;-143.72;46.76
8515;BME280;4295;51.024;7.000;2022-08-03T13:30:59;86099.97;;;-143.72;45.04
8515;BME280;4295;51.024;7.000;2022-08-03T13:33:26;86150.09;;;-143.72;46.42
8515;BME280;4295;51.024;7.000;2022-08-03T13:35:52;86476.81;;;-143.72;44.87
8515;BME280;4295;51.024;7.000;2022-08-03T13:38:18;86244.28;;;-143.72;45.72
8515;BME280;4295;51.024;7.000;2022-08-03T13:40:43;86168.13;;;-143.72;45.17
8515;BME280;4295;51.024;7.000;2022-08-03T13:43:09;86238.28;;;-143.72;49.71
8515;BME280;4295;51.024;7.000;2022-08-03T13:45:34;86258.31;;;-143.72;48.09
8515;BME280;4295;51.024;7.000;2022-08-03T13:48:00;86152.09;;;-143.72;45.10
8515;BME280;4295;51.024;7.000;2022-08-03T13:50:25;86200.19;;;-143.72;45.69
8515;BME280;4295;51.024;7.000;2022-08-03T13:52:51;86061.91;;;-143.72;44.51
8515;BME280;4295;51.024;7.000;2022-08-03T13:55:16;86091.97;;;-143.72;44.70